sensor_id;sensor_type;location;lat;lon;timestamp;pressure;altitude;pressure_sealevel;temperature
49154;BMP280;49455;52.252;9.124;2022-11-20T08:44:40;99119.09;;;-1.99
49154;BMP280;49455;52.252;9.124;2022-11-20T08:49:40;99131.47;;;-1.91
49154;BMP280;49455;52.252;9.124;2022-11-20T08:54:41;99116.22;;;-1.67
49154;BMP280;49455;52.252;9.124;2022-11-20T08:59:41;99110.84;;;-1.71
49154;BMP280;49455;52.252;9.124;2022-11-20T09:04:41;99107.75;;;-1.67
49154;BMP280;49455;52.252;9.124;2022-11-20T09:09:42;99104.31;;;-1.55
49154;BMP280;49455;52.252;9.124;2022-11-20T09:14:42;99100.16;;;-1.67
49154;BMP280;49455;52.252;9.124;2022-11-20T09:19:43;99119.03;;;-1.50
49154;BMP280;49455;52.252;9.124;2022-11-20T09:24:43;99123.41;;;-1.21
49154;BMP280;49455;52.252;9.124;2022-11-20T09:29:43;99112.16;;;-1.12
49154;BMP280;49455;52.252;9.124;2022-11-20T09:34:44;99120.63;;;-1.12
49154;BMP280;49455;52.252;9.124;2022-11-20T09:39:44;99130.09;;;-1.09
49154;BMP280;49455;52.252;9.124;2022-11-20T09:51:00;99124.66;;;-0.48
49154;BMP280;49455;52.252;9.124;2022-11-20T09:56:03;99122.56;;;-0.41
49154;BMP280;49455;52.252;9.124;2022-11-20T10:01:31;99122.16;;;-0.20
49154;BMP280;49455;52.252;9.124;2022-11-20T10:06:35;99118.56;;;-0.23
49154;BMP280;49455;52.252;9.124;2022-11-20T10:11:57;99123.84;;;-0.06
49154;BMP280;49455;52.252;9.124;2022-11-20T10:17:20;99118.69;;;0.07
49154;BMP280;49455;52.252;9.124;2022-11-20T10:23:30;99127.44;;;0.12
49154;BMP280;49455;52.252;9.124;2022-11-20T10:33:19;99113.06;;;0.27
49154;BMP280;49455;52.252;9.124;2022-11-20T10:38:24;99115.19;;;0.33
49154;BMP280;49455;52.252;9.124;2022-11-20T10:43:33;99094.69;;;0.30
49154;BMP280;49455;52.252;9.124;2022-11-20T10:48:33;99095.69;;;0.48
49154;BMP280;49455;52.252;9.124;2022-11-20T10:53:44;99080.34;;;0.61
49154;BMP280;49455;52.252;9.124;2022-11-20T11:04:23;99066.41;;;0.69
49154;BMP280;49455;52.252;9.124;2022-11-20T11:09:39;99050.19;;;0.67
49154;BMP280;49455;52.252;9.124;2022-11-20T11:14:52;99037.53;;;0.53
49154;BMP280;49455;52.252;9.124;2022-11-20T11:25:20;99023.41;;;0.58
49154;BMP280;49455;52.252;9.124;2022-11-20T11:30:22;99035.47;;;1.07
49154;BMP280;49455;52.252;9.124;2022-11-20T11:35:25;99028.59;;;1.53
49154;BMP280;49455;52.252;9.124;2022-11-20T11:40:26;99030.41;;;1.72
49154;BMP280;49455;52.252;9.124;2022-11-20T11:45:28;99024.72;;;2.10
49154;BMP280;49455;52.252;9.124;2022-11-20T11:50:29;99020.28;;;2.23
49154;BMP280;49455;52.252;9.124;2022-11-20T11:55:49;99021.31;;;2.27
49154;BMP280;49455;52.252;9.124;2022-11-20T12:06:34;98998.38;;;1.92
49154;BMP280;49455;52.252;9.124;2022-11-20T12:11:43;98990.25;;;1.66
49154;BMP280;49455;52.252;9.124;2022-11-20T12:16:45;98993.38;;;1.45
49154;BMP280;49455;52.252;9.124;2022-11-20T12:42:56;98979.59;;;2.78
49154;BMP280;49455;52.252;9.124;2022-11-20T12:58:57;98966.34;;;2.68
49154;BMP280;49455;52.252;9.124;2022-11-20T13:04:12;98957.78;;;2.66
49154;BMP280;49455;52.252;9.124;2022-11-20T13:09:18;98957.59;;;2.44
49154;BMP280;49455;52.252;9.124;2022-11-20T13:19:27;98945.72;;;2.27
49154;BMP280;49455;52.252;9.124;2022-11-20T13:24:29;98954.94;;;2.07
49154;BMP280;49455;52.252;9.124;2022-11-20T13:29:32;98949.56;;;2.01
49154;BMP280;49455;52.252;9.124;2022-11-20T13:34:33;98951.72;;;1.93
49154;BMP280;49455;52.252;9.124;2022-11-20T13:39:35;98954.25;;;2.10
49154;BMP280;49455;52.252;9.124;2022-11-20T13:44:44;98949.44;;;2.16
49154;BMP280;49455;52.252;9.124;2022-11-20T13:49:47;98947.66;;;2.14
49154;BMP280;49455;52.252;9.124;2022-11-20T13:55:36;98931.31;;;2.10
49154;BMP280;49455;52.252;9.124;2022-11-20T14:00:22;98934.09;;;2.15
49154;BMP280;49455;52.252;9.124;2022-11-20T14:05:23;98919.75;;;2.00
49154;BMP280;49455;52.252;9.124;2022-11-20T14:10:28;98913.00;;;1.83
49154;BMP280;49455;52.252;9.124;2022-11-20T14:15:34;98916.66;;;1.71
49154;BMP280;49455;52.252;9.124;2022-11-20T14:20:34;98911.75;;;1.58
49154;BMP280;49455;52.252;9.124;2022-11-20T14:30:47;98908.72;;;1.32
49154;BMP280;49455;52.252;9.124;2022-11-20T14:36:47;98902.63;;;1.28
49154;BMP280;49455;52.252;9.124;2022-11-20T14:41:52;98901.22;;;1.18
49154;BMP280;49455;52.252;9.124;2022-11-20T14:46:58;98902.41;;;1.08
49154;BMP280;49455;52.252;9.124;2022-11-20T14:52:21;98893.31;;;0.80
49154;BMP280;49455;52.252;9.124;2022-11-20T14:57:28;98891.31;;;0.59
49154;BMP280;49455;52.252;9.124;2022-11-20T15:02:51;98880.22;;;0.41
49154;BMP280;49455;52.252;9.124;2022-11-20T15:08:06;98879.00;;;0.35
49154;BMP280;49455;52.252;9.124;2022-11-20T15:13:17;98863.44;;;0.29
49154;BMP280;49455;52.252;9.124;2022-11-20T15:18:22;98854.09;;;0.28
49154;BMP280;49455;52.252;9.124;2022-11-20T15:23:23;98854.16;;;0.29
49154;BMP280;49455;52.252;9.124;2022-11-20T15:28:43;98863.59;;;0.32
49154;BMP280;49455;52.252;9.124;2022-11-20T15:33:44;98852.41;;;0.29
49154;BMP280;49455;52.252;9.124;2022-11-20T15:38:45;98847.19;;;0.26
49154;BMP280;49455;52.252;9.124;2022-11-20T15:43:45;98836.88;;;0.23
49154;BMP280;49455;52.252;9.124;2022-11-20T15:48:51;98824.78;;;0.19
49154;BMP280;49455;52.252;9.124;2022-11-20T15:53:57;98818.44;;;0.27
49154;BMP280;49455;52.252;9.124;2022-11-20T15:58:58;98808.28;;;0.27
49154;BMP280;49455;52.252;9.124;2022-11-20T16:03:59;98797.50;;;0.30
49154;BMP280;49455;52.252;9.124;2022-11-20T16:09:00;98792.88;;;0.39
49154;BMP280;49455;52.252;9.124;2022-11-20T16:14:00;98794.47;;;0.37
49154;BMP280;49455;52.252;9.124;2022-11-20T16:19:04;98776.47;;;0.33
49154;BMP280;49455;52.252;9.124;2022-11-20T16:24:08;98775.03;;;0.22
49154;BMP280;49455;52.252;9.124;2022-11-20T16:29:09;98775.66;;;0.18
49154;BMP280;49455;52.252;9.124;2022-11-20T16:34:10;98776.53;;;0.19
49154;BMP280;49455;52.252;9.124;2022-11-20T16:39:13;98772.25;;;0.18
49154;BMP280;49455;52.252;9.124;2022-11-20T16:44:14;98775.44;;;0.14
49154;BMP280;49455;52.252;9.124;2022-11-20T16:49:14;98764.94;;;0.08
49154;BMP280;49455;52.252;9.124;2022-11-20T16:54:15;98760.78;;;0.08
49154;BMP280;49455;52.252;9.124;2022-11-20T16:59:15;98745.84;;;0.14
49154;BMP280;49455;52.252;9.124;2022-11-20T17:04:16;98744.47;;;0.21
49154;BMP280;49455;52.252;9.124;2022-11-20T17:09:22;98745.66;;;0.27
49154;BMP280;49455;52.252;9.124;2022-11-20T17:14:48;98727.41;;;0.34
49154;BMP280;49455;52.252;9.124;2022-11-20T17:19:49;98730.34;;;0.41
49154;BMP280;49455;52.252;9.124;2022-11-20T17:24:52;98719.66;;;0.48
49154;BMP280;49455;52.252;9.124;2022-11-20T17:30:35;98719.09;;;0.54
49154;BMP280;49455;52.252;9.124;2022-11-20T17:35:23;98709.78;;;0.54
49154;BMP280;49455;52.252;9.124;2022-11-20T17:40:23;98702.16;;;0.54
49154;BMP280;49455;52.252;9.124;2022-11-20T17:45:24;98692.81;;;0.53
49154;BMP280;49455;52.252;9.124;2022-11-20T17:50:24;98675.69;;;0.49
49154;BMP280;49455;52.252;9.124;2022-11-20T17:55:24;98672.91;;;0.45
49154;BMP280;49455;52.252;9.124;2022-11-20T18:00:25;98675.53;;;0.46
49154;BMP280;49455;52.252;9.124;2022-11-20T18:05:25;98680.78;;;0.49
49154;BMP280;49455;52.252;9.124;2022-11-20T18:10:29;98676.00;;;0.55
49154;BMP280;49455;52.252;9.124;2022-11-20T18:15:33;98668.22;;;0.52
49154;BMP280;49455;52.252;9.124;2022-11-20T18:20:36;98665.88;;;0.57
49154;BMP280;49455;52.252;9.124;2022-11-20T18:25:37;98657.53;;;0.59
49154;BMP280;49455;52.252;9.124;2022-11-20T18:30:39;98656.09;;;0.64
49154;BMP280;49455;52.252;9.124;2022-11-20T18:35:40;98642.56;;;0.65
49154;BMP280;49455;52.252;9.124;2022-11-20T18:40:40;98634.81;;;0.62
49154;BMP280;49455;52.252;9.124;2022-11-20T18:45:41;98620.59;;;0.65
49154;BMP280;49455;52.252;9.124;2022-11-20T18:50:47;98624.16;;;0.69
49154;BMP280;49455;52.252;9.124;2022-11-20T18:55:48;98607.94;;;0.67
49154;BMP280;49455;52.252;9.124;2022-11-20T19:00:48;98604.47;;;0.65
49154;BMP280;49455;52.252;9.124;2022-11-20T19:05:49;98602.72;;;0.64
